sensor_id;sensor_type;location;lat;lon;timestamp;P1;durP1;ratioP1;P2;durP2;ratioP2
1471;SDS011;963;42.644;23.336;2022-11-15T00:01:08;32.80;;;20.10;;
1471;SDS011;963;42.644;23.336;2022-11-15T00:03:34;35.77;;;22.13;;
1471;SDS011;963;42.644;23.336;2022-11-15T00:06:01;31.53;;;20.93;;
1471;SDS011;963;42.644;23.336;2022-11-15T00:08:31;59.57;;;35.43;;
1471;SDS011;963;42.644;23.336;2022-11-15T00:10:58;50.43;;;25.33;;
1471;SDS011;963;42.644;23.336;2022-11-15T00:13:25;38.90;;;24.20;;
1471;SDS011;963;42.644;23.336;2022-11-15T00:15:51;39.53;;;25.37;;
1471;SDS011;963;42.644;23.336;2022-11-15T00:18:17;42.77;;;26.90;;
1471;SDS011;963;42.644;23.336;2022-11-15T00:20:42;44.47;;;27.30;;
1471;SDS011;963;42.644;23.336;2022-11-15T00:23:08;44.83;;;28.27;;
1471;SDS011;963;42.644;23.336;2022-11-15T00:25:34;51.97;;;28.10;;
1471;SDS011;963;42.644;23.336;2022-11-15T00:28:00;47.17;;;27.30;;
1471;SDS011;963;42.644;23.336;2022-11-15T00:30:26;50.23;;;32.30;;
1471;SDS011;963;42.644;23.336;2022-11-15T00:32:52;53.40;;;33.63;;
1471;SDS011;963;42.644;23.336;2022-11-15T00:35:18;48.17;;;31.37;;
1471;SDS011;963;42.644;23.336;2022-11-15T00:37:44;57.43;;;33.60;;
1471;SDS011;963;42.644;23.336;2022-11-15T00:40:09;50.40;;;32.57;;
1471;SDS011;963;42.644;23.336;2022-11-15T00:42:35;55.80;;;31.63;;
1471;SDS011;963;42.644;23.336;2022-11-15T00:45:01;53.57;;;33.17;;
1471;SDS011;963;42.644;23.336;2022-11-15T00:47:27;57.10;;;34.20;;
1471;SDS011;963;42.644;23.336;2022-11-15T00:49:52;52.43;;;31.70;;
1471;SDS011;963;42.644;23.336;2022-11-15T00:52:17;50.27;;;31.47;;
1471;SDS011;963;42.644;23.336;2022-11-15T00:54:43;45.23;;;30.60;;
1471;SDS011;963;42.644;23.336;2022-11-15T00:57:08;54.10;;;31.30;;
1471;SDS011;963;42.644;23.336;2022-11-15T00:59:34;53.50;;;34.73;;
1471;SDS011;963;42.644;23.336;2022-11-15T01:01:59;53.50;;;32.10;;
1471;SDS011;963;42.644;23.336;2022-11-15T01:04:26;43.90;;;28.20;;
1471;SDS011;963;42.644;23.336;2022-11-15T01:06:51;55.63;;;30.67;;
1471;SDS011;963;42.644;23.336;2022-11-15T01:09:17;39.10;;;26.37;;
1471;SDS011;963;42.644;23.336;2022-11-15T01:11:42;50.70;;;28.97;;
1471;SDS011;963;42.644;23.336;2022-11-15T01:14:07;45.10;;;25.80;;
1471;SDS011;963;42.644;23.336;2022-11-15T01:16:33;46.93;;;25.40;;
1471;SDS011;963;42.644;23.336;2022-11-15T01:18:58;50.70;;;29.37;;
1471;SDS011;963;42.644;23.336;2022-11-15T01:21:24;42.53;;;27.07;;
1471;SDS011;963;42.644;23.336;2022-11-15T01:23:56;55.20;;;34.77;;
1471;SDS011;963;42.644;23.336;2022-11-15T01:26:22;64.20;;;37.70;;
1471;SDS011;963;42.644;23.336;2022-11-15T01:28:48;72.17;;;39.13;;
1471;SDS011;963;42.644;23.336;2022-11-15T01:31:15;61.47;;;38.90;;
1471;SDS011;963;42.644;23.336;2022-11-15T01:33:43;61.20;;;38.77;;
1471;SDS011;963;42.644;23.336;2022-11-15T01:36:13;52.40;;;33.37;;
1471;SDS011;963;42.644;23.336;2022-11-15T01:38:40;46.70;;;27.20;;
1471;SDS011;963;42.644;23.336;2022-11-15T01:41:06;48.70;;;30.53;;
1471;SDS011;963;42.644;23.336;2022-11-15T01:43:35;43.07;;;27.33;;
1471;SDS011;963;42.644;23.336;2022-11-15T01:48:52;39.40;;;26.83;;
1471;SDS011;963;42.644;23.336;2022-11-15T01:51:20;42.07;;;27.50;;
1471;SDS011;963;42.644;23.336;2022-11-15T01:53:50;46.63;;;29.10;;
1471;SDS011;963;42.644;23.336;2022-11-15T01:56:21;47.67;;;27.27;;
1471;SDS011;963;42.644;23.336;2022-11-15T01:58:50;43.43;;;27.97;;
1471;SDS011;963;42.644;23.336;2022-11-15T02:01:17;40.43;;;24.63;;
1471;SDS011;963;42.644;23.336;2022-11-15T02:03:47;40.50;;;25.83;;
1471;SDS011;963;42.644;23.336;2022-11-15T02:06:17;40.37;;;24.97;;
1471;SDS011;963;42.644;23.336;2022-11-15T02:08:44;42.60;;;23.90;;
1471;SDS011;963;42.644;23.336;2022-11-15T02:11:09;32.27;;;22.73;;
1471;SDS011;963;42.644;23.336;2022-11-15T02:13:35;32.90;;;21.67;;
1471;SDS011;963;42.644;23.336;2022-11-15T02:22:04;34.77;;;23.00;;
1471;SDS011;963;42.644;23.336;2022-11-15T02:27:53;35.67;;;21.40;;
1471;SDS011;963;42.644;23.336;2022-11-15T02:30:41;37.17;;;21.07;;
1471;SDS011;963;42.644;23.336;2022-11-15T02:33:21;33.23;;;20.43;;
1471;SDS011;963;42.644;23.336;2022-11-15T02:36:16;32.13;;;18.90;;
1471;SDS011;963;42.644;23.336;2022-11-15T02:42:00;37.57;;;18.20;;
1471;SDS011;963;42.644;23.336;2022-11-15T02:44:33;35.37;;;20.87;;
1471;SDS011;963;42.644;23.336;2022-11-15T02:47:04;27.17;;;18.30;;
1471;SDS011;963;42.644;23.336;2022-11-15T02:49:43;27.33;;;16.77;;
1471;SDS011;963;42.644;23.336;2022-11-15T02:52:15;27.43;;;16.53;;
1471;SDS011;963;42.644;23.336;2022-11-15T02:54:42;31.70;;;17.83;;
1471;SDS011;963;42.644;23.336;2022-11-15T02:57:17;26.90;;;17.90;;
1471;SDS011;963;42.644;23.336;2022-11-15T03:05:08;29.70;;;16.93;;
1471;SDS011;963;42.644;23.336;2022-11-15T03:13:31;30.40;;;17.50;;
1471;SDS011;963;42.644;23.336;2022-11-15T03:16:21;35.10;;;20.57;;
1471;SDS011;963;42.644;23.336;2022-11-15T03:18:57;26.60;;;17.30;;
1471;SDS011;963;42.644;23.336;2022-11-15T03:21:30;29.67;;;19.57;;
1471;SDS011;963;42.644;23.336;2022-11-15T03:23:58;33.73;;;21.10;;
1471;SDS011;963;42.644;23.336;2022-11-15T03:26:28;40.23;;;23.03;;
1471;SDS011;963;42.644;23.336;2022-11-15T03:28:57;41.53;;;25.93;;
1471;SDS011;963;42.644;23.336;2022-11-15T03:31:28;32.77;;;22.30;;
1471;SDS011;963;42.644;23.336;2022-11-15T03:34:19;35.60;;;21.30;;
1471;SDS011;963;42.644;23.336;2022-11-15T03:37:05;30.90;;;19.00;;
1471;SDS011;963;42.644;23.336;2022-11-15T03:39:32;32.57;;;20.23;;
1471;SDS011;963;42.644;23.336;2022-11-15T03:47:36;43.07;;;25.43;;
1471;SDS011;963;42.644;23.336;2022-11-15T03:50:10;58.87;;;30.00;;
1471;SDS011;963;42.644;23.336;2022-11-15T03:52:40;63.60;;;30.60;;
1471;SDS011;963;42.644;23.336;2022-11-15T03:55:07;68.50;;;32.47;;
1471;SDS011;963;42.644;23.336;2022-11-15T03:57:36;67.33;;;30.70;;
1471;SDS011;963;42.644;23.336;2022-11-15T04:00:05;66.77;;;29.60;;
1471;SDS011;963;42.644;23.336;2022-11-15T04:02:31;75.47;;;32.63;;
1471;SDS011;963;42.644;23.336;2022-11-15T04:04:57;62.97;;;31.10;;
1471;SDS011;963;42.644;23.336;2022-11-15T04:07:22;58.33;;;30.73;;
1471;SDS011;963;42.644;23.336;2022-11-15T04:09:47;60.43;;;30.10;;
1471;SDS011;963;42.644;23.336;2022-11-15T04:12:31;66.70;;;31.47;;
1471;SDS011;963;42.644;23.336;2022-11-15T04:17:32;62.60;;;28.97;;
1471;SDS011;963;42.644;23.336;2022-11-15T04:20:30;55.47;;;29.80;;
1471;SDS011;963;42.644;23.336;2022-11-15T04:26:06;58.93;;;28.43;;
1471;SDS011;963;42.644;23.336;2022-11-15T04:28:36;60.97;;;30.20;;
1471;SDS011;963;42.644;23.336;2022-11-15T04:31:21;65.87;;;31.20;;
1471;SDS011;963;42.644;23.336;2022-11-15T04:33:47;56.33;;;29.70;;
1471;SDS011;963;42.644;23.336;2022-11-15T04:36:12;54.80;;;29.97;;
1471;SDS011;963;42.644;23.336;2022-11-15T04:38:57;56.23;;;27.50;;
1471;SDS011;963;42.644;23.336;2022-11-15T04:41:22;56.20;;;30.20;;
1471;SDS011;963;42.644;23.336;2022-11-15T04:43:47;51.73;;;29.60;;
1471;SDS011;963;42.644;23.336;2022-11-15T04:46:13;52.87;;;27.33;;
1471;SDS011;963;42.644;23.336;2022-11-15T04:48:38;57.63;;;25.90;;
1471;SDS011;963;42.644;23.336;2022-11-15T04:51:04;34.60;;;21.80;;
1471;SDS011;963;42.644;23.336;2022-11-15T04:53:29;32.83;;;22.50;;
1471;SDS011;963;42.644;23.336;2022-11-15T04:55:55;31.13;;;20.70;;
1471;SDS011;963;42.644;23.336;2022-11-15T04:58:20;27.93;;;18.87;;
1471;SDS011;963;42.644;23.336;2022-11-15T05:00:45;27.27;;;18.30;;
1471;SDS011;963;42.644;23.336;2022-11-15T05:03:11;29.13;;;19.20;;
1471;SDS011;963;42.644;23.336;2022-11-15T05:05:55;25.30;;;18.90;;
1471;SDS011;963;42.644;23.336;2022-11-15T05:08:20;29.10;;;19.23;;
1471;SDS011;963;42.644;23.336;2022-11-15T05:10:46;30.80;;;20.83;;
1471;SDS011;963;42.644;23.336;2022-11-15T05:13:12;27.67;;;20.00;;
1471;SDS011;963;42.644;23.336;2022-11-15T05:15:37;31.23;;;19.73;;
1471;SDS011;963;42.644;23.336;2022-11-15T05:18:03;32.87;;;20.33;;
1471;SDS011;963;42.644;23.336;2022-11-15T05:20:29;27.53;;;20.10;;
1471;SDS011;963;42.644;23.336;2022-11-15T05:22:54;27.70;;;19.57;;
1471;SDS011;963;42.644;23.336;2022-11-15T05:25:21;32.73;;;19.53;;
1471;SDS011;963;42.644;23.336;2022-11-15T05:27:47;26.90;;;17.90;;
1471;SDS011;963;42.644;23.336;2022-11-15T05:30:13;29.23;;;18.60;;
1471;SDS011;963;42.644;23.336;2022-11-15T05:32:39;31.17;;;22.10;;
1471;SDS011;963;42.644;23.336;2022-11-15T05:35:05;27.53;;;20.63;;
1471;SDS011;963;42.644;23.336;2022-11-15T05:37:34;27.27;;;18.83;;
1471;SDS011;963;42.644;23.336;2022-11-15T05:39:59;32.70;;;20.33;;
1471;SDS011;963;42.644;23.336;2022-11-15T05:42:25;29.97;;;18.90;;
1471;SDS011;963;42.644;23.336;2022-11-15T05:44:52;33.43;;;20.97;;
1471;SDS011;963;42.644;23.336;2022-11-15T05:47:19;32.33;;;19.23;;
1471;SDS011;963;42.644;23.336;2022-11-15T05:49:49;27.80;;;18.77;;
1471;SDS011;963;42.644;23.336;2022-11-15T05:52:17;31.97;;;19.87;;
1471;SDS011;963;42.644;23.336;2022-11-15T05:54:46;39.57;;;19.73;;
1471;SDS011;963;42.644;23.336;2022-11-15T05:57:12;30.80;;;19.63;;
1471;SDS011;963;42.644;23.336;2022-11-15T05:59:38;31.63;;;19.67;;
1471;SDS011;963;42.644;23.336;2022-11-15T06:02:05;34.73;;;20.10;;
1471;SDS011;963;42.644;23.336;2022-11-15T06:04:30;35.53;;;20.97;;
1471;SDS011;963;42.644;23.336;2022-11-15T06:06:57;39.90;;;21.60;;
1471;SDS011;963;42.644;23.336;2022-11-15T06:09:23;38.93;;;22.40;;
1471;SDS011;963;42.644;23.336;2022-11-15T06:11:49;43.53;;;23.37;;
1471;SDS011;963;42.644;23.336;2022-11-15T06:14:14;41.03;;;24.27;;
1471;SDS011;963;42.644;23.336;2022-11-15T06:16:39;54.97;;;28.10;;
1471;SDS011;963;42.644;23.336;2022-11-15T06:19:06;65.90;;;31.50;;
1471;SDS011;963;42.644;23.336;2022-11-15T06:21:32;59.63;;;28.67;;
1471;SDS011;963;42.644;23.336;2022-11-15T06:23:58;54.57;;;29.67;;
1471;SDS011;963;42.644;23.336;2022-11-15T06:26:23;59.10;;;27.87;;
1471;SDS011;963;42.644;23.336;2022-11-15T06:28:49;49.57;;;26.30;;
1471;SDS011;963;42.644;23.336;2022-11-15T06:31:14;52.23;;;26.90;;
1471;SDS011;963;42.644;23.336;2022-11-15T06:33:40;52.70;;;26.83;;
1471;SDS011;963;42.644;23.336;2022-11-15T06:36:06;61.57;;;30.57;;
1471;SDS011;963;42.644;23.336;2022-11-15T06:38:33;64.53;;;29.80;;
1471;SDS011;963;42.644;23.336;2022-11-15T06:41:03;58.13;;;28.73;;
1471;SDS011;963;42.644;23.336;2022-11-15T06:43:30;57.73;;;29.67;;
1471;SDS011;963;42.644;23.336;2022-11-15T06:46:00;60.53;;;29.43;;
1471;SDS011;963;42.644;23.336;2022-11-15T06:48:27;62.93;;;31.33;;
1471;SDS011;963;42.644;23.336;2022-11-15T06:50:53;69.17;;;35.40;;
1471;SDS011;963;42.644;23.336;2022-11-15T06:53:20;65.23;;;36.23;;
1471;SDS011;963;42.644;23.336;2022-11-15T06:55:46;81.53;;;38.83;;
1471;SDS011;963;42.644;23.336;2022-11-15T06:58:11;77.97;;;37.87;;
1471;SDS011;963;42.644;23.336;2022-11-15T07:00:37;72.53;;;35.17;;
1471;SDS011;963;42.644;23.336;2022-11-15T07:03:02;67.30;;;36.07;;
1471;SDS011;963;42.644;23.336;2022-11-15T07:05:28;73.70;;;36.47;;
1471;SDS011;963;42.644;23.336;2022-11-15T07:07:54;71.70;;;36.47;;
1471;SDS011;963;42.644;23.336;2022-11-15T07:10:20;61.83;;;32.63;;
1471;SDS011;963;42.644;23.336;2022-11-15T07:12:47;77.37;;;36.50;;
1471;SDS011;963;42.644;23.336;2022-11-15T07:15:14;68.53;;;33.00;;
1471;SDS011;963;42.644;23.336;2022-11-15T07:17:40;61.60;;;32.40;;
1471;SDS011;963;42.644;23.336;2022-11-15T07:20:06;62.67;;;31.77;;
1471;SDS011;963;42.644;23.336;2022-11-15T07:22:32;60.07;;;32.17;;
1471;SDS011;963;42.644;23.336;2022-11-15T07:24:57;58.63;;;31.00;;
1471;SDS011;963;42.644;23.336;2022-11-15T07:27:22;66.30;;;30.40;;
1471;SDS011;963;42.644;23.336;2022-11-15T07:29:48;58.37;;;31.77;;
1471;SDS011;963;42.644;23.336;2022-11-15T07:32:13;65.73;;;33.33;;
1471;SDS011;963;42.644;23.336;2022-11-15T07:34:39;76.00;;;35.00;;
1471;SDS011;963;42.644;23.336;2022-11-15T07:37:04;65.07;;;32.97;;
1471;SDS011;963;42.644;23.336;2022-11-15T07:39:29;60.37;;;32.20;;
1471;SDS011;963;42.644;23.336;2022-11-15T07:41:55;62.20;;;33.30;;
1471;SDS011;963;42.644;23.336;2022-11-15T07:44:40;64.20;;;34.07;;
1471;SDS011;963;42.644;23.336;2022-11-15T07:47:06;66.33;;;33.53;;
1471;SDS011;963;42.644;23.336;2022-11-15T07:49:31;65.70;;;33.57;;
1471;SDS011;963;42.644;23.336;2022-11-15T07:51:57;70.33;;;33.40;;
1471;SDS011;963;42.644;23.336;2022-11-15T07:54:22;61.70;;;34.30;;
1471;SDS011;963;42.644;23.336;2022-11-15T07:56:47;64.80;;;34.10;;
1471;SDS011;963;42.644;23.336;2022-11-15T07:59:13;68.33;;;36.57;;
1471;SDS011;963;42.644;23.336;2022-11-15T08:01:38;69.90;;;37.70;;
1471;SDS011;963;42.644;23.336;2022-11-15T08:04:03;69.00;;;34.30;;
1471;SDS011;963;42.644;23.336;2022-11-15T08:06:29;69.67;;;35.57;;
1471;SDS011;963;42.644;23.336;2022-11-15T08:08:55;72.83;;;36.80;;
1471;SDS011;963;42.644;23.336;2022-11-15T08:11:20;71.97;;;34.80;;
1471;SDS011;963;42.644;23.336;2022-11-15T08:13:46;74.70;;;38.67;;
1471;SDS011;963;42.644;23.336;2022-11-15T08:16:11;77.00;;;38.80;;
1471;SDS011;963;42.644;23.336;2022-11-15T08:18:37;89.20;;;42.10;;
1471;SDS011;963;42.644;23.336;2022-11-15T08:21:03;85.30;;;43.10;;
1471;SDS011;963;42.644;23.336;2022-11-15T08:23:29;88.70;;;40.97;;
1471;SDS011;963;42.644;23.336;2022-11-15T08:26:01;85.50;;;41.00;;
1471;SDS011;963;42.644;23.336;2022-11-15T08:28:30;76.10;;;39.23;;
1471;SDS011;963;42.644;23.336;2022-11-15T08:30:56;88.73;;;42.00;;
1471;SDS011;963;42.644;23.336;2022-11-15T08:33:22;85.97;;;41.97;;
1471;SDS011;963;42.644;23.336;2022-11-15T08:35:48;84.20;;;41.80;;
1471;SDS011;963;42.644;23.336;2022-11-15T08:38:13;78.90;;;39.77;;
1471;SDS011;963;42.644;23.336;2022-11-15T08:40:39;78.57;;;39.87;;
1471;SDS011;963;42.644;23.336;2022-11-15T08:43:05;90.90;;;41.60;;
1471;SDS011;963;42.644;23.336;2022-11-15T08:45:31;86.03;;;38.90;;
1471;SDS011;963;42.644;23.336;2022-11-15T08:48:00;81.97;;;39.80;;
1471;SDS011;963;42.644;23.336;2022-11-15T08:50:26;75.20;;;39.67;;
1471;SDS011;963;42.644;23.336;2022-11-15T08:52:52;83.13;;;40.57;;
1471;SDS011;963;42.644;23.336;2022-11-15T08:55:17;76.77;;;40.50;;
1471;SDS011;963;42.644;23.336;2022-11-15T08:57:43;85.23;;;40.60;;
1471;SDS011;963;42.644;23.336;2022-11-15T09:00:08;90.10;;;41.43;;
1471;SDS011;963;42.644;23.336;2022-11-15T09:02:34;86.80;;;42.27;;
1471;SDS011;963;42.644;23.336;2022-11-15T09:05:02;90.23;;;42.53;;
1471;SDS011;963;42.644;23.336;2022-11-15T09:07:28;87.70;;;41.43;;
1471;SDS011;963;42.644;23.336;2022-11-15T09:09:54;75.33;;;41.97;;
1471;SDS011;963;42.644;23.336;2022-11-15T09:12:20;87.17;;;43.00;;
1471;SDS011;963;42.644;23.336;2022-11-15T09:14:45;98.60;;;44.40;;
1471;SDS011;963;42.644;23.336;2022-11-15T09:17:11;93.33;;;44.20;;
1471;SDS011;963;42.644;23.336;2022-11-15T09:19:36;86.47;;;44.13;;
1471;SDS011;963;42.644;23.336;2022-11-15T09:22:04;93.33;;;44.37;;
1471;SDS011;963;42.644;23.336;2022-11-15T09:24:31;88.47;;;43.27;;
1471;SDS011;963;42.644;23.336;2022-11-15T09:26:57;88.80;;;44.80;;
1471;SDS011;963;42.644;23.336;2022-11-15T09:29:22;100.17;;;45.20;;
1471;SDS011;963;42.644;23.336;2022-11-15T09:31:47;94.70;;;44.47;;
1471;SDS011;963;42.644;23.336;2022-11-15T09:34:13;87.53;;;44.67;;
1471;SDS011;963;42.644;23.336;2022-11-15T09:36:38;93.90;;;46.50;;
1471;SDS011;963;42.644;23.336;2022-11-15T09:39:04;89.80;;;44.40;;
1471;SDS011;963;42.644;23.336;2022-11-15T09:44:38;81.50;;;42.70;;
1471;SDS011;963;42.644;23.336;2022-11-15T09:47:19;75.70;;;42.00;;
1471;SDS011;963;42.644;23.336;2022-11-15T09:50:09;82.37;;;43.20;;
1471;SDS011;963;42.644;23.336;2022-11-15T09:52:41;104.60;;;46.90;;
1471;SDS011;963;42.644;23.336;2022-11-15T09:55:13;100.30;;;47.57;;
1471;SDS011;963;42.644;23.336;2022-11-15T09:57:54;96.70;;;47.80;;
1471;SDS011;963;42.644;23.336;2022-11-15T10:00:35;102.90;;;48.57;;
1471;SDS011;963;42.644;23.336;2022-11-15T10:05:57;95.20;;;48.30;;
1471;SDS011;963;42.644;23.336;2022-11-15T10:11:30;82.20;;;48.77;;
1471;SDS011;963;42.644;23.336;2022-11-15T10:13:59;91.40;;;46.30;;
1471;SDS011;963;42.644;23.336;2022-11-15T10:24:40;92.23;;;45.50;;
1471;SDS011;963;42.644;23.336;2022-11-15T10:27:12;92.47;;;47.10;;
1471;SDS011;963;42.644;23.336;2022-11-15T10:29:46;98.40;;;48.33;;
1471;SDS011;963;42.644;23.336;2022-11-15T10:32:14;92.90;;;48.33;;
1471;SDS011;963;42.644;23.336;2022-11-15T10:34:43;91.13;;;47.13;;
1471;SDS011;963;42.644;23.336;2022-11-15T10:37:09;92.27;;;47.23;;
1471;SDS011;963;42.644;23.336;2022-11-15T10:39:34;89.07;;;46.40;;
1471;SDS011;963;42.644;23.336;2022-11-15T10:42:17;90.07;;;45.97;;
1471;SDS011;963;42.644;23.336;2022-11-15T10:44:51;93.70;;;45.67;;
1471;SDS011;963;42.644;23.336;2022-11-15T10:47:29;81.87;;;44.40;;
1471;SDS011;963;42.644;23.336;2022-11-15T10:50:00;93.03;;;45.80;;
1471;SDS011;963;42.644;23.336;2022-11-15T10:52:32;80.23;;;41.80;;
1471;SDS011;963;42.644;23.336;2022-11-15T10:55:05;98.67;;;59.10;;
1471;SDS011;963;42.644;23.336;2022-11-15T10:57:51;127.80;;;76.03;;
1471;SDS011;963;42.644;23.336;2022-11-15T11:05:26;75.53;;;41.77;;
1471;SDS011;963;42.644;23.336;2022-11-15T11:07:59;71.20;;;43.93;;
1471;SDS011;963;42.644;23.336;2022-11-15T11:10:26;73.53;;;42.17;;
1471;SDS011;963;42.644;23.336;2022-11-15T11:12:52;67.67;;;41.87;;
1471;SDS011;963;42.644;23.336;2022-11-15T11:15:18;69.33;;;41.00;;
1471;SDS011;963;42.644;23.336;2022-11-15T11:20:38;58.97;;;38.40;;
1471;SDS011;963;42.644;23.336;2022-11-15T11:29:20;64.63;;;42.10;;
1471;SDS011;963;42.644;23.336;2022-11-15T11:40:37;63.37;;;41.13;;
1471;SDS011;963;42.644;23.336;2022-11-15T11:50:51;60.40;;;40.77;;
1471;SDS011;963;42.644;23.336;2022-11-15T11:53:25;59.87;;;40.97;;
1471;SDS011;963;42.644;23.336;2022-11-15T11:55:57;63.27;;;38.83;;
1471;SDS011;963;42.644;23.336;2022-11-15T11:58:33;59.60;;;41.83;;
1471;SDS011;963;42.644;23.336;2022-11-15T12:01:16;63.70;;;42.07;;
1471;SDS011;963;42.644;23.336;2022-11-15T12:03:48;61.33;;;41.50;;
1471;SDS011;963;42.644;23.336;2022-11-15T12:09:07;59.87;;;40.00;;
1471;SDS011;963;42.644;23.336;2022-11-15T12:14:39;61.30;;;40.40;;
1471;SDS011;963;42.644;23.336;2022-11-15T12:17:24;64.53;;;42.40;;
1471;SDS011;963;42.644;23.336;2022-11-15T12:19:52;61.43;;;40.53;;
1471;SDS011;963;42.644;23.336;2022-11-15T12:22:23;61.83;;;41.83;;
1471;SDS011;963;42.644;23.336;2022-11-15T12:24:58;56.10;;;39.60;;
1471;SDS011;963;42.644;23.336;2022-11-15T12:27:40;60.90;;;40.73;;
1471;SDS011;963;42.644;23.336;2022-11-15T12:30:16;59.40;;;39.47;;
1471;SDS011;963;42.644;23.336;2022-11-15T12:32:52;54.17;;;37.43;;
1471;SDS011;963;42.644;23.336;2022-11-15T12:35:25;63.83;;;39.47;;
1471;SDS011;963;42.644;23.336;2022-11-15T12:37:56;57.53;;;40.03;;
1471;SDS011;963;42.644;23.336;2022-11-15T12:40:22;55.30;;;39.93;;
1471;SDS011;963;42.644;23.336;2022-11-15T12:45:37;56.33;;;39.80;;
1471;SDS011;963;42.644;23.336;2022-11-15T13:12:03;48.93;;;37.93;;
1471;SDS011;963;42.644;23.336;2022-11-15T13:14:45;55.43;;;37.90;;
1471;SDS011;963;42.644;23.336;2022-11-15T13:19:51;55.97;;;39.07;;
1471;SDS011;963;42.644;23.336;2022-11-15T13:22:17;51.13;;;38.60;;
1471;SDS011;963;42.644;23.336;2022-11-15T13:25:02;52.23;;;37.83;;
1471;SDS011;963;42.644;23.336;2022-11-15T13:27:28;51.93;;;37.30;;
1471;SDS011;963;42.644;23.336;2022-11-15T13:29:54;54.57;;;37.87;;
1471;SDS011;963;42.644;23.336;2022-11-15T13:32:19;50.93;;;36.47;;
1471;SDS011;963;42.644;23.336;2022-11-15T13:34:46;45.83;;;37.13;;
1471;SDS011;963;42.644;23.336;2022-11-15T13:39:44;51.63;;;37.63;;
1471;SDS011;963;42.644;23.336;2022-11-15T13:42:14;44.60;;;35.17;;
1471;SDS011;963;42.644;23.336;2022-11-15T13:44:40;48.47;;;37.17;;
1471;SDS011;963;42.644;23.336;2022-11-15T13:47:29;48.33;;;35.73;;
1471;SDS011;963;42.644;23.336;2022-11-15T13:49:56;47.13;;;36.17;;
1471;SDS011;963;42.644;23.336;2022-11-15T13:52:24;47.13;;;36.87;;
1471;SDS011;963;42.644;23.336;2022-11-15T14:00:32;50.00;;;38.53;;
1471;SDS011;963;42.644;23.336;2022-11-15T14:03:19;53.13;;;38.63;;
1471;SDS011;963;42.644;23.336;2022-11-15T14:06:31;54.97;;;38.87;;
1471;SDS011;963;42.644;23.336;2022-11-15T14:08:41;51.00;;;38.23;;
1471;SDS011;963;42.644;23.336;2022-11-15T14:11:23;58.20;;;37.23;;
1471;SDS011;963;42.644;23.336;2022-11-15T14:17:00;60.43;;;39.50;;
1471;SDS011;963;42.644;23.336;2022-11-15T14:24:35;68.80;;;41.10;;
1471;SDS011;963;42.644;23.336;2022-11-15T14:29:52;56.73;;;37.50;;
1471;SDS011;963;42.644;23.336;2022-11-15T14:32:19;55.60;;;37.70;;
1471;SDS011;963;42.644;23.336;2022-11-15T14:34:45;51.53;;;36.53;;
1471;SDS011;963;42.644;23.336;2022-11-15T14:37:32;55.70;;;38.17;;
1471;SDS011;963;42.644;23.336;2022-11-15T14:40:01;55.90;;;38.20;;
1471;SDS011;963;42.644;23.336;2022-11-15T14:42:28;59.27;;;38.90;;
1471;SDS011;963;42.644;23.336;2022-11-15T14:44:53;76.10;;;44.60;;
1471;SDS011;963;42.644;23.336;2022-11-15T14:47:19;64.70;;;40.77;;
1471;SDS011;963;42.644;23.336;2022-11-15T14:49:44;68.90;;;40.33;;
1471;SDS011;963;42.644;23.336;2022-11-15T14:52:24;69.67;;;42.67;;
1471;SDS011;963;42.644;23.336;2022-11-15T14:54:50;76.70;;;40.93;;
1471;SDS011;963;42.644;23.336;2022-11-15T14:57:16;70.73;;;44.20;;
1471;SDS011;963;42.644;23.336;2022-11-15T14:59:41;69.73;;;43.70;;
1471;SDS011;963;42.644;23.336;2022-11-15T15:02:25;79.97;;;48.30;;
1471;SDS011;963;42.644;23.336;2022-11-15T15:04:51;71.63;;;44.60;;
1471;SDS011;963;42.644;23.336;2022-11-15T15:07:18;208.87;;;134.13;;
1471;SDS011;963;42.644;23.336;2022-11-15T15:09:44;281.03;;;177.33;;
1471;SDS011;963;42.644;23.336;2022-11-15T15:12:14;131.90;;;88.73;;
1471;SDS011;963;42.644;23.336;2022-11-15T15:14:40;79.87;;;49.53;;
1471;SDS011;963;42.644;23.336;2022-11-15T15:17:05;71.23;;;44.97;;
1471;SDS011;963;42.644;23.336;2022-11-15T15:19:31;74.80;;;45.50;;
1471;SDS011;963;42.644;23.336;2022-11-15T15:21:57;66.37;;;44.40;;
1471;SDS011;963;42.644;23.336;2022-11-15T15:24:22;73.50;;;45.20;;
1471;SDS011;963;42.644;23.336;2022-11-15T15:26:47;71.63;;;44.27;;
1471;SDS011;963;42.644;23.336;2022-11-15T15:29:13;73.93;;;46.70;;
1471;SDS011;963;42.644;23.336;2022-11-15T15:31:38;83.53;;;49.10;;
1471;SDS011;963;42.644;23.336;2022-11-15T15:34:03;76.13;;;46.57;;
1471;SDS011;963;42.644;23.336;2022-11-15T15:36:29;70.83;;;43.63;;
1471;SDS011;963;42.644;23.336;2022-11-15T15:38:54;71.83;;;44.40;;
1471;SDS011;963;42.644;23.336;2022-11-15T15:41:20;77.67;;;46.33;;
1471;SDS011;963;42.644;23.336;2022-11-15T15:43:46;79.03;;;45.83;;
1471;SDS011;963;42.644;23.336;2022-11-15T15:46:15;86.53;;;50.33;;
1471;SDS011;963;42.644;23.336;2022-11-15T15:48:42;96.30;;;55.07;;
1471;SDS011;963;42.644;23.336;2022-11-15T15:51:08;101.93;;;57.87;;
1471;SDS011;963;42.644;23.336;2022-11-15T15:53:33;87.70;;;50.17;;
1471;SDS011;963;42.644;23.336;2022-11-15T15:55:59;80.53;;;46.50;;
1471;SDS011;963;42.644;23.336;2022-11-15T15:58:25;73.67;;;44.17;;
1471;SDS011;963;42.644;23.336;2022-11-15T16:00:50;84.80;;;46.30;;
1471;SDS011;963;42.644;23.336;2022-11-15T16:03:16;84.37;;;47.77;;
1471;SDS011;963;42.644;23.336;2022-11-15T16:05:41;87.80;;;49.30;;
1471;SDS011;963;42.644;23.336;2022-11-15T16:08:16;84.87;;;47.27;;
1471;SDS011;963;42.644;23.336;2022-11-15T16:10:43;78.90;;;46.53;;
1471;SDS011;963;42.644;23.336;2022-11-15T16:13:08;315.73;;;203.50;;
1471;SDS011;963;42.644;23.336;2022-11-15T16:15:34;108.07;;;61.90;;
1471;SDS011;963;42.644;23.336;2022-11-15T16:18:00;110.13;;;56.80;;
1471;SDS011;963;42.644;23.336;2022-11-15T16:20:37;95.30;;;52.87;;
1471;SDS011;963;42.644;23.336;2022-11-15T16:23:04;97.77;;;49.47;;
1471;SDS011;963;42.644;23.336;2022-11-15T16:25:34;93.63;;;49.07;;
1471;SDS011;963;42.644;23.336;2022-11-15T16:28:17;80.77;;;49.77;;
1471;SDS011;963;42.644;23.336;2022-11-15T16:30:45;94.60;;;50.13;;
1471;SDS011;963;42.644;23.336;2022-11-15T16:33:10;98.73;;;51.77;;
1471;SDS011;963;42.644;23.336;2022-11-15T16:35:35;95.40;;;50.40;;
1471;SDS011;963;42.644;23.336;2022-11-15T16:38:01;92.73;;;52.30;;
1471;SDS011;963;42.644;23.336;2022-11-15T16:40:28;87.63;;;51.70;;
1471;SDS011;963;42.644;23.336;2022-11-15T16:42:55;85.67;;;51.07;;
1471;SDS011;963;42.644;23.336;2022-11-15T16:45:24;85.80;;;50.37;;
1471;SDS011;963;42.644;23.336;2022-11-15T16:47:53;87.27;;;50.03;;
1471;SDS011;963;42.644;23.336;2022-11-15T16:52:48;76.13;;;48.40;;
1471;SDS011;963;42.644;23.336;2022-11-15T16:55:15;78.37;;;47.57;;
1471;SDS011;963;42.644;23.336;2022-11-15T16:57:41;98.80;;;53.03;;
1471;SDS011;963;42.644;23.336;2022-11-15T17:00:07;89.67;;;50.27;;
1471;SDS011;963;42.644;23.336;2022-11-15T17:02:35;96.57;;;50.23;;
1471;SDS011;963;42.644;23.336;2022-11-15T17:05:01;93.10;;;49.10;;
1471;SDS011;963;42.644;23.336;2022-11-15T17:07:26;103.83;;;51.27;;
1471;SDS011;963;42.644;23.336;2022-11-15T17:09:51;93.70;;;50.53;;
1471;SDS011;963;42.644;23.336;2022-11-15T17:12:17;92.60;;;49.30;;
1471;SDS011;963;42.644;23.336;2022-11-15T17:14:42;102.23;;;64.87;;
1471;SDS011;963;42.644;23.336;2022-11-15T17:17:10;96.13;;;53.27;;
1471;SDS011;963;42.644;23.336;2022-11-15T17:19:35;99.20;;;60.27;;